createdAt,value
2022-10-23T00:01:29.534Z,94.63
2022-10-23T00:04:32.489Z,94.21
2022-10-23T00:07:35.183Z,93.88
2022-10-23T00:10:41.611Z,94.30
2022-10-23T00:13:45.319Z,94.38
2022-10-23T00:16:48.387Z,94.97
2022-10-23T00:19:51.960Z,94.69
2022-10-23T00:22:54.943Z,95.00
2022-10-23T00:25:58.023Z,93.63
2022-10-23T00:29:00.812Z,93.79
2022-10-23T00:32:03.662Z,93.02
2022-10-23T00:35:06.781Z,93.48
2022-10-23T00:38:10.476Z,92.83
2022-10-23T00:41:24.048Z,93.81
2022-10-23T00:44:29.854Z,93.60
2022-10-23T00:47:32.751Z,93.39
2022-10-23T00:50:36.399Z,92.79
2022-10-23T00:53:39.806Z,92.93
2022-10-23T00:56:44.724Z,92.03
2022-10-23T00:59:47.628Z,92.25
2022-10-23T01:02:51.923Z,91.89
2022-10-23T01:06:19.070Z,92.35
2022-10-23T01:09:39.465Z,91.97
2022-10-23T01:12:49.371Z,92.04
2022-10-23T01:16:10.471Z,91.76
2022-10-23T01:19:31.181Z,91.84
2022-10-23T01:22:56.304Z,91.18
2022-10-23T01:26:20.462Z,91.75
2022-10-23T01:29:43.655Z,90.93
2022-10-23T01:32:56.581Z,91.92
2022-10-23T01:36:04.999Z,92.63
2022-10-23T01:39:23.570Z,92.09
2022-10-23T01:42:32.012Z,93.26
2022-10-23T01:45:45.238Z,94.07
2022-10-23T01:48:55.058Z,94.41
2022-10-23T01:52:02.316Z,94.97
2022-10-23T01:55:07.467Z,94.05
2022-10-23T01:58:12.587Z,94.38
2022-10-23T02:01:20.206Z,94.45
2022-10-23T02:04:34.377Z,94.26
2022-10-23T02:07:37.611Z,95.38
2022-10-23T02:10:40.446Z,95.86
2022-10-23T02:13:48.165Z,96.21
2022-10-23T02:16:57.975Z,96.58
2022-10-23T02:20:13.731Z,96.46
2022-10-23T02:23:26.679Z,96.59
2022-10-23T02:26:43.889Z,96.84
2022-10-23T02:29:53.947Z,96.72
2022-10-23T02:32:58.739Z,96.51
2022-10-23T02:36:02.102Z,96.28
2022-10-23T02:39:05.804Z,96.18
2022-10-23T02:42:22.848Z,95.65
2022-10-23T02:45:44.520Z,95.68
2022-10-23T02:49:18.539Z,95.18
2022-10-23T02:52:38.063Z,94.93
2022-10-23T02:56:00.437Z,95.09
2022-10-23T02:59:27.905Z,94.72
2022-10-23T03:02:37.754Z,94.46
2022-10-23T03:05:44.934Z,94.50
2022-10-23T03:08:54.400Z,94.53
2022-10-23T03:11:57.244Z,94.34
2022-10-23T03:15:00.239Z,94.61
2022-10-23T03:18:03.091Z,94.21
2022-10-23T03:21:05.937Z,94.32
2022-10-23T03:24:09.789Z,94.83
2022-10-23T03:27:19.131Z,95.01
2022-10-23T03:30:22.088Z,95.65
2022-10-23T03:33:30.632Z,95.40
2022-10-23T03:36:41.910Z,95.31
2022-10-23T03:39:46.011Z,95.86
2022-10-23T03:42:48.771Z,95.97
2022-10-23T03:45:57.055Z,95.49
2022-10-23T03:49:01.803Z,95.38
2022-10-23T03:52:05.047Z,95.41
2022-10-23T03:55:08.524Z,95.32
2022-10-23T03:58:12.620Z,95.19
2022-10-23T04:01:15.573Z,95.39
2022-10-23T04:04:18.647Z,94.54
2022-10-23T04:07:21.514Z,94.13
2022-10-23T04:10:25.533Z,94.04
2022-10-23T04:13:28.266Z,93.63
2022-10-23T04:16:31.106Z,93.53
2022-10-23T04:19:35.863Z,93.53
2022-10-23T04:22:38.668Z,93.68
2022-10-23T04:25:42.220Z,94.21
2022-10-23T04:28:45.044Z,93.93
2022-10-23T04:31:47.738Z,93.89
2022-10-23T04:34:52.303Z,93.39
2022-10-23T04:37:55.134Z,93.34
2022-10-23T04:40:59.375Z,93.50
2022-10-23T04:44:02.119Z,93.82
2022-10-23T04:47:04.991Z,93.50
2022-10-23T04:50:10.320Z,93.38
2022-10-23T04:53:51.642Z,93.16
2022-10-23T04:57:12.765Z,93.44
2022-10-23T05:00:35.442Z,93.29
2022-10-23T05:03:38.946Z,92.71
2022-10-23T05:06:41.724Z,92.98
2022-10-23T05:09:52.647Z,92.63
2022-10-23T05:13:13.535Z,92.83
2022-10-23T05:16:40.786Z,92.55
2022-10-23T05:19:51.799Z,92.63
2022-10-23T05:22:58.410Z,92.49
2022-10-23T05:26:03.412Z,92.23
2022-10-23T05:29:07.474Z,92.76
2022-10-23T05:32:14.065Z,92.59
2022-10-23T05:35:21.899Z,92.09
2022-10-23T05:38:27.937Z,92.08
2022-10-23T05:41:31.472Z,91.21
2022-10-23T05:44:35.738Z,91.56
2022-10-23T05:47:45.573Z,91.52
2022-10-23T05:51:09.456Z,91.05
2022-10-23T05:54:21.819Z,91.24
2022-10-23T05:57:35.682Z,91.60
2022-10-23T06:00:42.476Z,91.58
2022-10-23T06:04:05.963Z,92.05
2022-10-23T06:07:37.807Z,92.22
2022-10-23T06:10:42.540Z,92.27
2022-10-23T06:13:48.572Z,92.36
2022-10-23T06:16:54.447Z,92.61
2022-10-23T06:20:03.667Z,92.81
2022-10-23T06:23:11.690Z,91.74
2022-10-23T06:26:33.558Z,92.00
2022-10-23T06:29:45.302Z,90.86
2022-10-23T06:32:48.035Z,91.63
2022-10-23T06:35:51.508Z,91.51
2022-10-23T06:38:56.425Z,90.79
2022-10-23T06:42:07.944Z,90.54
2022-10-23T06:45:30.263Z,90.09
2022-10-23T06:48:50.938Z,89.66
2022-10-23T06:52:00.411Z,89.60
2022-10-23T06:55:04.383Z,89.28
2022-10-23T06:58:11.125Z,91.04
2022-10-23T07:01:30.133Z,90.11
2022-10-23T07:04:33.030Z,89.26
2022-10-23T07:07:37.491Z,88.95
2022-10-23T07:10:43.134Z,89.13
2022-10-23T07:13:46.791Z,88.06
2022-10-23T07:16:52.318Z,88.51
2022-10-23T07:19:55.855Z,88.48
2022-10-23T07:22:59.467Z,87.73
2022-10-23T07:26:11.624Z,86.81
2022-10-23T07:29:14.527Z,85.88
2022-10-23T07:32:19.758Z,85.10
2022-10-23T07:35:41.565Z,84.14
2022-10-23T07:38:51.329Z,85.47
2022-10-23T07:41:54.212Z,85.34
2022-10-23T07:44:56.988Z,84.40
2022-10-23T07:47:59.678Z,84.94
2022-10-23T07:51:14.612Z,84.79
2022-10-23T07:54:23.247Z,86.12
2022-10-23T07:57:44.874Z,86.28
2022-10-23T08:01:04.821Z,86.18
2022-10-23T08:04:11.790Z,85.57
2022-10-23T08:07:24.348Z,84.88
2022-10-23T08:10:30.398Z,84.83
2022-10-23T08:13:35.181Z,85.20
2022-10-23T08:16:41.557Z,84.85
2022-10-23T08:20:11.185Z,85.86
2022-10-23T08:23:19.862Z,84.70
2022-10-23T08:26:24.805Z,84.97
2022-10-23T08:29:27.694Z,83.08
2022-10-23T08:32:33.565Z,83.99
2022-10-23T08:35:38.917Z,84.05
2022-10-23T08:38:42.677Z,84.55
2022-10-23T08:41:50.859Z,83.08
2022-10-23T08:45:05.162Z,83.25
2022-10-23T08:48:40.388Z,85.57
2022-10-23T08:52:14.429Z,85.57
2022-10-23T08:55:24.155Z,85.46
2022-10-23T08:58:50.042Z,84.42
2022-10-23T09:02:00.492Z,85.11
2022-10-23T09:05:03.610Z,84.41
2022-10-23T09:08:38.856Z,83.33
2022-10-23T09:11:55.669Z,83.49
2022-10-23T09:15:04.701Z,82.39
2022-10-23T09:18:16.231Z,83.19
2022-10-23T09:21:19.282Z,82.93
2022-10-23T09:24:24.414Z,80.61
2022-10-23T09:27:27.260Z,81.73
2022-10-23T09:30:37.295Z,82.93
2022-10-23T09:33:40.665Z,82.69
2022-10-23T09:36:50.515Z,82.93
2022-10-23T09:40:12.663Z,84.67
2022-10-23T09:43:18.958Z,85.16
2022-10-23T09:46:21.685Z,84.90
2022-10-23T09:49:30.200Z,84.35
2022-10-23T09:52:37.590Z,82.91
2022-10-23T09:55:40.403Z,81.23
2022-10-23T09:58:57.043Z,80.75
2022-10-23T10:02:04.726Z,80.15
2022-10-23T10:05:34.700Z,80.55
2022-10-23T10:08:57.098Z,81.89
2022-10-23T10:12:17.685Z,80.78
2022-10-23T10:15:32.544Z,81.44
2022-10-23T10:18:56.951Z,82.07
2022-10-23T10:22:26.354Z,82.01
2022-10-23T10:25:56.178Z,81.34
2022-10-23T10:29:14.107Z,81.38
2022-10-23T10:32:24.923Z,81.23
2022-10-23T10:35:37.457Z,79.98
2022-10-23T10:38:54.860Z,80.39
2022-10-23T10:42:12.974Z,78.02
2022-10-23T10:45:15.603Z,78.20
2022-10-23T10:48:47.694Z,75.88
2022-10-23T10:52:08.332Z,75.62
2022-10-23T10:55:22.526Z,75.36
2022-10-23T10:58:40.696Z,76.82
2022-10-23T11:01:51.063Z,77.82
2022-10-23T11:05:34.881Z,76.05
2022-10-23T11:08:56.305Z,74.85
2022-10-23T11:12:05.687Z,74.09
2022-10-23T11:15:34.740Z,72.21
2022-10-23T11:18:41.038Z,71.58
2022-10-23T11:21:46.505Z,71.48
2022-10-23T11:25:12.393Z,70.73
2022-10-23T11:28:31.467Z,69.33
2022-10-23T11:32:06.834Z,69.25
2022-10-23T11:35:18.602Z,69.76
2022-10-23T11:38:34.770Z,71.19
2022-10-23T11:41:37.643Z,71.58
2022-10-23T11:44:46.089Z,71.39
2022-10-23T11:47:58.872Z,73.04
2022-10-23T11:51:05.244Z,76.10
2022-10-23T11:54:17.287Z,76.37
2022-10-23T11:57:20.144Z,77.90
2022-10-23T12:00:24.231Z,77.38
2022-10-23T12:04:18.531Z,78.43
2022-10-23T12:07:30.092Z,77.63
2022-10-23T12:10:44.728Z,75.40
2022-10-23T12:13:47.536Z,74.96
2022-10-23T12:16:50.453Z,71.93
2022-10-23T12:19:56.009Z,70.14
2022-10-23T12:23:01.666Z,71.23
2022-10-23T12:26:23.315Z,71.23
2022-10-23T12:29:55.120Z,69.80
2022-10-23T12:33:39.893Z,72.42
2022-10-23T12:37:18.865Z,71.16
2022-10-23T12:40:22.669Z,69.79
2022-10-23T12:43:38.122Z,70.82
2022-10-23T12:46:43.578Z,70.88
2022-10-23T12:49:50.909Z,71.64
2022-10-23T12:52:57.333Z,73.07
2022-10-23T12:56:05.039Z,74.20
2022-10-23T12:59:16.251Z,73.86
2022-10-23T13:02:26.874Z,73.65
2022-10-23T13:05:32.258Z,73.05
2022-10-23T13:08:41.911Z,73.35
2022-10-23T13:12:09.134Z,73.39
2022-10-23T13:15:12.193Z,72.85
2022-10-23T13:18:16.590Z,72.28
2022-10-23T13:21:28.827Z,71.58
2022-10-23T13:24:32.168Z,71.41
2022-10-23T13:27:35.081Z,72.46
2022-10-23T13:30:43.493Z,72.22
2022-10-23T13:33:49.300Z,71.67
2022-10-23T13:36:58.982Z,72.36
2022-10-23T13:40:10.615Z,72.05
2022-10-23T13:43:16.614Z,73.63
2022-10-23T13:46:23.236Z,72.53
2022-10-23T13:49:25.985Z,71.80
2022-10-23T13:52:28.792Z,72.19
2022-10-23T13:55:31.914Z,71.93
2022-10-23T13:58:34.912Z,73.03
2022-10-23T14:01:38.062Z,72.81
2022-10-23T14:04:41.068Z,72.97
2022-10-23T14:07:44.057Z,73.54
2022-10-23T14:10:47.620Z,74.66
2022-10-23T14:13:50.901Z,75.33
2022-10-23T14:16:54.852Z,75.03
2022-10-23T14:19:57.607Z,74.73
2022-10-23T14:23:00.365Z,74.92
2022-10-23T14:26:07.542Z,75.39
2022-10-23T14:29:18.426Z,76.40
2022-10-23T14:32:24.243Z,75.76
2022-10-23T14:35:27.028Z,74.79
2022-10-23T14:38:30.057Z,73.66
2022-10-23T14:41:32.932Z,75.00
2022-10-23T14:44:35.766Z,75.75
2022-10-23T14:47:38.627Z,76.14
2022-10-23T14:50:47.172Z,76.87
2022-10-23T14:53:58.704Z,76.99
2022-10-23T14:57:02.991Z,77.83
2022-10-23T15:00:07.265Z,77.10
2022-10-23T15:03:10.316Z,78.12
2022-10-23T15:06:17.527Z,77.79
2022-10-23T15:09:21.543Z,77.80
2022-10-23T15:12:24.698Z,79.11
2022-10-23T15:15:27.670Z,80.11
2022-10-23T15:18:30.649Z,80.61
2022-10-23T15:21:33.436Z,80.20
2022-10-23T15:24:36.222Z,80.50
2022-10-23T15:27:39.170Z,80.50
2022-10-23T15:30:44.175Z,80.75
2022-10-23T15:33:50.167Z,81.46
2022-10-23T15:36:54.208Z,81.06
2022-10-23T15:39:59.716Z,81.64
2022-10-23T15:43:05.375Z,81.23
2022-10-23T15:46:08.144Z,82.07
2022-10-23T15:49:11.570Z,82.43
2022-10-23T15:52:14.738Z,83.30
2022-10-23T15:55:17.557Z,83.54
2022-10-23T15:58:20.431Z,83.57
2022-10-23T16:01:23.696Z,83.15
2022-10-23T16:04:28.617Z,84.05
2022-10-23T16:07:31.625Z,84.55
2022-10-23T16:10:40.414Z,84.82
2022-10-23T16:13:43.865Z,84.74
2022-10-23T16:16:46.759Z,84.67
2022-10-23T16:19:49.539Z,84.47
2022-10-23T16:22:52.368Z,85.25
2022-10-23T16:25:55.555Z,85.91
2022-10-23T16:29:02.259Z,86.58
2022-10-23T16:32:05.206Z,86.25
2022-10-23T16:35:11.022Z,86.75
2022-10-23T16:38:28.787Z,88.34
2022-10-23T16:41:32.535Z,87.74
2022-10-23T16:44:37.339Z,89.10
2022-10-23T16:47:42.060Z,89.33
2022-10-23T16:50:44.912Z,89.18
2022-10-23T16:53:48.698Z,88.88
2022-10-23T16:56:51.794Z,88.38
2022-10-23T16:59:55.111Z,88.27
2022-10-23T17:02:58.073Z,89.46
2022-10-23T17:06:02.830Z,90.00
2022-10-23T17:09:08.382Z,90.69
2022-10-23T17:12:11.433Z,90.11
2022-10-23T17:15:14.344Z,89.98
2022-10-23T17:18:17.839Z,91.20
2022-10-23T17:21:22.447Z,91.45
2022-10-23T17:24:25.436Z,91.45
2022-10-23T17:27:28.705Z,92.03
2022-10-23T17:30:31.548Z,92.06
2022-10-23T17:33:34.579Z,91.89
2022-10-23T17:36:40.642Z,91.72
2022-10-23T17:39:43.998Z,92.37
2022-10-23T17:42:47.177Z,92.27
2022-10-23T17:45:50.266Z,92.22
2022-10-23T17:48:56.386Z,92.70
2022-10-23T17:51:59.594Z,92.51
2022-10-23T17:55:02.559Z,93.22
2022-10-23T17:58:06.633Z,93.55
2022-10-23T18:01:12.138Z,93.42
2022-10-23T18:04:16.638Z,94.23
2022-10-23T18:07:20.091Z,93.81
2022-10-23T18:10:23.090Z,93.68
2022-10-23T18:13:26.186Z,93.71
2022-10-23T18:16:29.677Z,93.79
2022-10-23T18:19:32.469Z,93.51
2022-10-23T18:22:35.691Z,93.92
2022-10-23T18:25:43.222Z,93.98
2022-10-23T18:28:47.891Z,93.98
2022-10-23T18:31:50.965Z,93.57
2022-10-23T18:34:54.280Z,94.02
2022-10-23T18:37:58.166Z,94.03
2022-10-23T18:41:01.665Z,94.04
2022-10-23T18:44:05.092Z,94.18
2022-10-23T18:47:08.411Z,93.89
2022-10-23T18:50:11.913Z,94.39
2022-10-23T18:53:15.022Z,95.93
2022-10-23T18:56:23.597Z,96.06
2022-10-23T18:59:27.103Z,95.64
2022-10-23T19:02:30.414Z,95.54
2022-10-23T19:05:33.378Z,95.67
2022-10-23T19:08:38.017Z,95.61
2022-10-23T19:11:41.833Z,95.70
2022-10-23T19:14:46.059Z,95.27
2022-10-23T19:17:55.110Z,95.27
2022-10-23T19:20:59.597Z,95.21
2022-10-23T19:24:07.783Z,95.34
2022-10-23T19:27:11.164Z,95.28
2022-10-23T19:30:21.900Z,95.21
2022-10-23T19:33:25.837Z,95.73
2022-10-23T19:36:28.705Z,95.39
2022-10-23T19:39:31.930Z,95.39
2022-10-23T19:42:40.332Z,95.89
2022-10-23T19:45:43.426Z,95.62
2022-10-23T19:48:46.956Z,95.66
2022-10-23T19:51:51.486Z,96.30
2022-10-23T19:54:54.940Z,96.11
2022-10-23T19:57:58.046Z,96.12
2022-10-23T20:01:13.738Z,96.91
2022-10-23T20:04:18.463Z,97.51
2022-10-23T20:07:21.596Z,96.71
2022-10-23T20:10:26.001Z,96.97
2022-10-23T20:13:29.065Z,97.34
2022-10-23T20:16:37.710Z,97.56
2022-10-23T20:19:40.595Z,97.25
2022-10-23T20:22:44.214Z,97.06
2022-10-23T20:25:47.561Z,96.77
2022-10-23T20:28:54.110Z,97.38
2022-10-23T20:31:57.383Z,98.14
2022-10-23T20:35:00.828Z,97.68
2022-10-23T20:38:03.860Z,97.39
2022-10-23T20:41:07.141Z,97.34
2022-10-23T20:47:19.868Z,96.88
2022-10-23T20:50:23.994Z,96.99
2022-10-23T20:53:26.775Z,96.98
2022-10-23T20:56:35.607Z,96.69
2022-10-23T20:59:38.550Z,96.46
2022-10-23T21:02:41.564Z,97.66
2022-10-23T21:05:45.009Z,97.96
2022-10-23T21:08:47.863Z,97.38
2022-10-23T21:11:50.981Z,97.31
2022-10-23T21:14:53.908Z,97.64
2022-10-23T21:18:01.526Z,98.08
2022-10-23T21:21:12.568Z,97.79
2022-10-23T21:24:16.879Z,97.64
2022-10-23T21:27:19.955Z,97.44
2022-10-23T21:30:22.736Z,97.44
2022-10-23T21:33:26.174Z,98.05
2022-10-23T21:36:31.067Z,97.49
2022-10-23T21:39:35.055Z,97.99
2022-10-23T21:42:37.910Z,97.35
2022-10-23T21:45:40.776Z,97.46
2022-10-23T21:48:44.208Z,96.96
2022-10-23T21:51:47.547Z,96.97
2022-10-23T21:54:54.062Z,96.69
2022-10-23T21:57:56.911Z,96.85
2022-10-23T22:01:00.766Z,96.47
2022-10-23T22:04:03.767Z,96.81
2022-10-23T22:07:07.632Z,96.57
2022-10-23T22:10:10.631Z,96.49
2022-10-23T22:13:13.410Z,96.14
2022-10-23T22:16:17.139Z,96.70
2022-10-23T22:19:22.091Z,96.49
2022-10-23T22:22:24.904Z,96.30
2022-10-23T22:25:29.239Z,96.36
2022-10-23T22:28:32.230Z,96.52
2022-10-23T22:31:35.929Z,96.19
2022-10-23T22:34:55.381Z,96.70
2022-10-23T22:37:58.210Z,96.58
2022-10-23T22:41:02.544Z,96.57
2022-10-23T22:44:05.460Z,96.58
2022-10-23T22:47:08.303Z,95.88
2022-10-23T22:50:11.136Z,96.12
2022-10-23T22:53:13.885Z,96.01
2022-10-23T22:56:20.607Z,95.80
2022-10-23T22:59:23.511Z,95.80
2022-10-23T23:02:26.607Z,96.13
2022-10-23T23:05:29.460Z,96.02
2022-10-23T23:08:33.552Z,95.85
2022-10-23T23:11:45.759Z,95.68
2022-10-23T23:14:54.979Z,95.88
2022-10-23T23:17:57.982Z,96.23
2022-10-23T23:21:05.240Z,96.11
2022-10-23T23:24:08.302Z,96.51
2022-10-23T23:27:11.070Z,95.74
2022-10-23T23:30:13.917Z,95.93
2022-10-23T23:33:19.565Z,95.99
2022-10-23T23:36:27.726Z,95.85
2022-10-23T23:39:30.575Z,96.55
2022-10-23T23:42:33.361Z,96.45
2022-10-23T23:45:36.059Z,96.66
2022-10-23T23:48:39.391Z,96.46
2022-10-23T23:51:42.332Z,96.59
2022-10-23T23:54:45.075Z,96.26
2022-10-23T23:57:48.004Z,96.31
